Time;durP1;ratioP1;P1;durP2;ratioP2;P2;SDS_P1;SDS_P2;PMS_P1;PMS_P2;Temp;Humidity;BMP_temperature;BMP_pressure;BME280_temperature;BME280_humidity;BME280_pressure;Samples;Min_cycle;Max_cycle;Signal;HPM_P1;HPM_P2
2022/03/08 00:01:27;;;;;;;16.27;7.40;;;;;;;-2.33;57.15;99427.31;5023869;28;20392;-72
2022/03/08 00:03:52;;;;;;;17.95;8.63;;;;;;;-2.53;57.53;99397.75;5010918;28;20034;-72
2022/03/08 00:06:17;;;;;;;18.77;8.68;;;;;;;-2.39;57.83;99422.44;5014339;28;20524;-73
2022/03/08 00:08:43;;;;;;;16.85;8.45;;;;;;;-2.52;58.84;99444.47;5027099;28;20029;-73
2022/03/08 00:11:09;;;;;;;18.73;9.10;;;;;;;-2.84;59.54;99416.69;5026233;28;20086;-72
2022/03/08 00:13:34;;;;;;;14.40;8.40;;;;;;;-2.95;59.33;99425.34;5029114;28;20500;-73
2022/03/08 00:16:00;;;;;;;16.25;8.55;;;;;;;-2.90;59.89;99432.03;5032341;28;20037;-73
2022/03/08 00:18:25;;;;;;;16.80;9.00;;;;;;;-2.70;59.85;99445.72;5033253;28;20034;-73
2022/03/08 00:20:51;;;;;;;18.02;8.63;;;;;;;-2.85;60.32;99444.13;5036682;28;20091;-73
2022/03/08 00:23:16;;;;;;;16.13;8.65;;;;;;;-3.07;60.48;99408.47;5040785;28;20548;-72
2022/03/08 00:25:41;;;;;;;17.30;8.55;;;;;;;-3.03;60.68;99411.78;5040185;28;20138;-72
2022/03/08 00:28:07;;;;;;;14.57;7.70;;;;;;;-3.19;61.43;99402.22;5046210;28;20025;-73
2022/03/08 00:30:32;;;;;;;18.30;8.32;;;;;;;-3.35;61.65;99390.97;5035589;28;20079;-72
2022/03/08 00:32:58;;;;;;;16.52;8.80;;;;;;;-3.15;61.73;99418.72;5029372;28;20025;-72
2022/03/08 00:35:25;;;;;;;16.83;8.15;;;;;;;-3.36;62.20;99410.41;5045900;28;20029;-72
2022/03/08 00:37:51;;;;;;;15.48;8.15;;;;;;;-3.32;62.54;99425.16;5038997;28;20032;-73
2022/03/08 00:40:19;;;;;;;16.52;7.88;;;;;;;-3.42;62.38;99411.66;5016885;28;20061;-72
2022/03/08 00:42:45;;;;;;;17.02;7.97;;;;;;;-3.27;61.26;99398.41;5020983;28;20017;-72
2022/03/08 00:45:11;;;;;;;14.27;7.65;;;;;;;-3.04;61.57;99415.38;5038627;28;20442;-72
2022/03/08 00:47:39;;;;;;;14.02;6.97;;;;;;;-3.02;60.47;99403.72;5036699;28;20087;-72
2022/03/08 00:50:07;;;;;;;12.82;6.75;;;;;;;-2.44;59.51;99436.88;5035734;28;20391;-72
2022/03/08 00:52:33;;;;;;;11.32;5.97;;;;;;;-2.00;57.38;99438.22;5030174;28;20511;-72
2022/03/08 00:54:58;;;;;;;11.38;6.30;;;;;;;-1.88;57.15;99435.66;5008037;28;20029;-72
2022/03/08 00:57:23;;;;;;;16.25;7.63;;;;;;;-1.94;57.83;99428.13;5020357;28;20034;-72
2022/03/08 00:59:49;;;;;;;14.75;7.68;;;;;;;-2.32;57.98;99410.47;5032060;28;20117;-72
2022/03/08 01:02:14;;;;;;;13.85;7.13;;;;;;;-2.45;58.44;99400.72;5038109;28;20631;-72
2022/03/08 01:04:39;;;;;;;13.02;6.13;;;;;;;-2.24;57.92;99418.75;5015759;28;20068;-72
2022/03/08 01:07:08;;;;;;;13.00;6.57;;;;;;;-1.94;56.23;99425.47;5001048;28;20022;-72
2022/03/08 01:09:34;;;;;;;11.20;6.32;;;;;;;-2.11;57.09;99422.22;5022570;28;20481;-72
2022/03/08 01:12:00;;;;;;;15.10;6.97;;;;;;;-2.21;57.50;99437.06;5038200;28;20076;-72
2022/03/08 01:14:25;;;;;;;16.17;7.07;;;;;;;-2.58;58.64;99410.47;5038519;28;20455;-72
2022/03/08 01:16:50;;;;;;;12.98;7.47;;;;;;;-2.69;59.50;99416.50;5039030;28;20641;-72
2022/03/08 01:19:16;;;;;;;15.70;7.20;;;;;;;-2.80;59.43;99404.94;5015959;28;20036;-72
2022/03/08 01:21:42;;;;;;;12.65;6.80;;;;;;;-2.72;59.12;99386.75;5038517;28;20464;-72
2022/03/08 01:24:07;;;;;;;11.38;6.50;;;;;;;-2.81;59.34;99380.25;5038365;28;20029;-72
2022/03/08 01:26:33;;;;;;;13.63;6.82;;;;;;;-2.43;58.22;99409.41;5038412;28;20032;-72
2022/03/08 01:28:59;;;;;;;12.30;6.43;;;;;;;-2.61;58.39;99360.34;5035137;28;20041;-72
2022/03/08 01:31:24;;;;;;;12.75;6.75;;;;;;;-2.24;58.55;99410.78;5021797;28;20032;-72
2022/03/08 01:33:50;;;;;;;11.95;6.60;;;;;;;-2.62;59.12;99366.63;5018686;28;20029;-72
2022/03/08 01:36:15;;;;;;;14.13;6.60;;;;;;;-2.54;59.62;99401.38;5018602;28;20508;-72
2022/03/08 01:38:41;;;;;;;16.48;6.95;;;;;;;-2.68;58.40;99362.56;5021776;28;20084;-72
2022/03/08 01:41:06;;;;;;;14.05;6.75;;;;;;;-2.52;59.10;99396.78;5021280;28;20050;-72
2022/03/08 01:43:32;;;;;;;11.98;6.78;;;;;;;-2.48;57.57;99382.38;5015322;28;20037;-72
2022/03/08 01:45:57;;;;;;;13.73;6.78;;;;;;;-2.38;57.81;99397.63;4997857;28;20083;-72
2022/03/08 01:48:23;;;;;;;14.95;6.93;;;;;;;-2.59;58.12;99378.78;5026583;28;20032;-72
2022/03/08 01:50:48;;;;;;;14.55;7.47;;;;;;;-2.52;58.07;99395.94;5025134;28;20029;-71
2022/03/08 01:53:13;;;;;;;11.43;6.63;;;;;;;-2.44;57.54;99378.59;5015671;28;20048;-72
2022/03/08 01:55:39;;;;;;;18.35;7.13;;;;;;;-2.37;56.86;99359.59;5015592;28;20030;-72
2022/03/08 01:58:04;;;;;;;12.55;5.97;;;;;;;-2.29;56.71;99370.50;5033577;28;20107;-72
2022/03/08 02:00:31;;;;;;;11.52;6.53;;;;;;;-2.18;56.70;99367.09;5014041;28;20030;-72
2022/03/08 02:02:57;;;;;;;14.30;6.97;;;;;;;-2.17;56.03;99359.03;5028767;28;20079;-72
2022/03/08 02:05:25;;;;;;;10.73;6.20;;;;;;;-2.02;55.33;99367.69;5016607;28;20033;-72
2022/03/08 02:07:50;;;;;;;12.25;6.32;;;;;;;-2.17;55.87;99327.25;5034582;28;20485;-72
2022/03/08 02:10:16;;;;;;;12.63;6.95;;;;;;;-1.92;54.61;99330.75;5012536;28;20033;-72
2022/03/08 02:12:41;;;;;;;12.18;6.68;;;;;;;-1.84;54.99;99352.25;5034862;28;20476;-72
2022/03/08 02:15:28;;;;;;;13.38;6.32;;;;;;;-2.10;55.13;99324.97;5016487;28;20041;-72
2022/03/08 02:17:59;;;;;;;11.57;5.70;;;;;;;-1.95;55.11;99346.91;5006748;28;20029;-73
2022/03/08 02:20:26;;;;;;;19.23;6.88;;;;;;;-2.08;54.96;99321.25;5032032;28;20032;-73
2022/03/08 02:22:52;;;;;;;14.55;6.57;;;;;;;-1.92;55.19;99342.22;5029480;28;20049;-74
2022/03/08 02:25:19;;;;;;;12.88;6.30;;;;;;;-1.98;54.82;99313.50;5031866;28;20075;-72
2022/03/08 02:27:47;;;;;;;13.48;6.78;;;;;;;-1.81;54.07;99329.03;5016670;28;20108;-71
2022/03/08 02:30:14;;;;;;;11.55;6.35;;;;;;;-1.68;54.02;99339.56;5027779;28;20066;-71
2022/03/08 02:32:40;;;;;;;12.57;6.55;;;;;;;-1.76;54.22;99320.72;5014772;28;20084;-71
2022/03/08 02:35:07;;;;;;;10.48;5.60;;;;;;;-1.78;53.92;99306.75;5028760;28;20104;-71
2022/03/08 02:37:41;;;;;;;13.55;6.28;;;;;;;-1.53;53.35;99327.00;5034309;28;20091;-71
2022/03/08 02:40:09;;;;;;;13.10;6.18;;;;;;;-1.39;53.25;99328.59;5033304;28;20489;-71
2022/03/08 02:42:34;;;;;;;15.88;6.45;;;;;;;-1.48;53.26;99310.72;5034513;28;20572;-71
2022/03/08 02:44:59;;;;;;;12.68;5.75;;;;;;;-1.56;52.79;99292.72;5045080;28;20037;-72
2022/03/08 02:47:25;;;;;;;10.85;6.22;;;;;;;-1.43;53.17;99330.66;5043477;28;20034;-74
2022/03/08 02:49:50;;;;;;;12.23;6.05;;;;;;;-1.53;53.24;99308.41;5039669;28;20029;-72
2022/03/08 02:52:16;;;;;;;12.13;6.20;;;;;;;-1.48;53.10;99310.72;5050315;28;20035;-71
2022/03/08 02:54:41;;;;;;;11.30;6.00;;;;;;;-1.52;53.22;99301.28;5045920;28;20492;-72
2022/03/08 02:57:06;;;;;;;11.77;6.30;;;;;;;-1.41;52.72;99314.63;5047687;28;20034;-72
2022/03/08 02:59:31;;;;;;;14.13;5.97;;;;;;;-1.45;52.61;99287.47;5044352;28;20025;-71
2022/03/08 03:01:57;;;;;;;14.57;6.18;;;;;;;-1.35;52.28;99315.00;5030140;28;20029;-71
2022/03/08 03:04:22;;;;;;;14.77;6.93;;;;;;;-1.38;52.16;99315.25;5033928;28;20044;-70
2022/03/08 03:06:47;;;;;;;11.63;6.30;;;;;;;-1.57;52.22;99278.63;5029840;28;20017;-70
2022/03/08 03:09:13;;;;;;;12.40;5.97;;;;;;;-1.58;52.66;99287.53;5033706;28;20633;-71
2022/03/08 03:11:38;;;;;;;10.48;6.13;;;;;;;-1.42;52.47;99313.75;5033090;28;20549;-71
2022/03/08 03:14:03;;;;;;;11.38;6.72;;;;;;;-1.55;52.69;99291.75;5024216;28;20028;-71
2022/03/08 03:16:29;;;;;;;18.42;6.85;;;;;;;-1.54;52.86;99290.81;5014550;28;20029;-71
2022/03/08 03:18:54;;;;;;;12.32;6.13;;;;;;;-1.64;53.12;99295.94;5033664;28;20104;-71
2022/03/08 03:21:19;;;;;;;10.95;5.97;;;;;;;-1.73;52.85;99271.91;5015907;28;20047;-71
2022/03/08 03:26:12;;;;;;;12.13;6.22;;;;;;;-1.62;52.93;99287.88;4971295;28;20051;-73
2022/03/08 03:28:37;;;;;;;11.95;6.15;;;;;;;-1.68;52.73;99294.47;4974181;28;20053;-72
2022/03/08 03:31:03;;;;;;;15.23;6.43;;;;;;;-1.81;54.01;99286.59;4971210;28;20034;-71
2022/03/08 03:33:28;;;;;;;11.65;6.07;;;;;;;-1.77;53.69;99303.97;4960685;28;20371;-71
2022/03/08 03:35:53;;;;;;;11.68;5.97;;;;;;;-1.75;53.16;99295.06;4959678;28;20031;-71
2022/03/08 03:38:19;;;;;;;12.55;5.65;;;;;;;-1.86;53.34;99280.78;4960095;28;20077;-72
2022/03/08 03:40:44;;;;;;;11.77;6.68;;;;;;;-1.81;53.14;99291.91;4974799;28;20031;-72
2022/03/08 03:43:11;;;;;;;10.30;5.95;;;;;;;-1.78;53.77;99301.44;4972762;28;20038;-72
2022/03/08 03:45:36;;;;;;;12.23;6.55;;;;;;;-1.74;53.67;99294.94;4957943;28;20043;-72
2022/03/08 03:48:02;;;;;;;10.70;5.93;;;;;;;-1.96;53.57;99282.41;4973923;28;20030;-72
2022/03/08 03:50:27;;;;;;;14.63;7.00;;;;;;;-1.86;53.41;99309.97;4974522;28;20034;-73
2022/03/08 03:52:53;;;;;;;11.65;5.85;;;;;;;-1.83;53.52;99304.44;4958748;28;20025;-73
2022/03/08 03:55:19;;;;;;;15.90;6.05;;;;;;;-1.90;53.22;99281.13;4964255;28;20034;-72
2022/03/08 03:57:44;;;;;;;10.15;6.00;;;;;;;-1.83;53.56;99288.50;4966585;28;20031;-72
2022/03/08 04:00:12;;;;;;;12.45;6.13;;;;;;;-1.72;53.82;99300.97;4953965;28;20027;-72
2022/03/08 04:02:38;;;;;;;14.05;6.22;;;;;;;-1.66;53.04;99300.53;4966396;28;20039;-72
2022/03/08 04:05:03;;;;;;;11.23;6.00;;;;;;;-1.96;53.85;99282.41;4973463;28;20030;-72
2022/03/08 04:07:29;;;;;;;14.57;6.13;;;;;;;-1.93;54.12;99303.41;4971636;28;20053;-72
2022/03/08 04:09:54;;;;;;;11.13;6.22;;;;;;;-2.06;53.77;99284.03;4955760;28;20038;-73
2022/03/08 04:12:20;;;;;;;14.68;6.13;;;;;;;-1.99;54.37;99283.50;4967686;28;20122;-74
2022/03/08 04:14:45;;;;;;;13.35;6.03;;;;;;;-2.03;53.91;99287.31;4968209;28;20027;-72
2022/03/08 04:17:10;;;;;;;11.65;6.20;;;;;;;-1.87;53.79;99307.41;4968816;28;20109;-73
2022/03/08 04:19:36;;;;;;;12.98;6.72;;;;;;;-1.96;54.23;99286.88;4951992;28;20026;-73
2022/03/08 04:22:01;;;;;;;11.80;6.25;;;;;;;-1.74;53.65;99289.63;4956718;28;20043;-72
2022/03/08 04:24:27;;;;;;;12.30;6.13;;;;;;;-1.82;53.24;99266.31;4961370;28;20557;-71
2022/03/08 04:26:53;;;;;;;17.55;6.40;;;;;;;-1.77;53.48;99271.28;4976435;28;20026;-71
2022/03/08 04:29:18;;;;;;;10.65;5.70;;;;;;;-1.69;53.04;99289.31;4961303;28;20134;-72
2022/03/08 04:31:43;;;;;;;12.27;6.20;;;;;;;-1.63;53.00;99300.28;4971897;28;20101;-73
2022/03/08 04:34:09;;;;;;;16.17;7.13;;;;;;;-1.72;53.28;99279.75;4970316;28;20091;-73
2022/03/08 04:36:34;;;;;;;15.30;7.50;;;;;;;-1.70;53.22;99288.47;4967568;28;20503;-72
2022/03/08 04:38:59;;;;;;;13.50;6.93;;;;;;;-1.81;53.72;99276.00;4954387;28;20531;-72
2022/03/08 04:41:25;;;;;;;10.15;6.07;;;;;;;-1.71;53.77;99285.91;4954844;29;20033;-72
2022/03/08 04:43:51;;;;;;;13.32;6.50;;;;;;;-1.86;54.16;99278.13;4953645;28;20094;-72
2022/03/08 04:46:16;;;;;;;15.45;7.57;;;;;;;-2.13;55.20;99267.72;4976551;28;20031;-73
2022/03/08 04:48:41;;;;;;;14.10;7.18;;;;;;;-2.31;55.68;99271.72;4978025;28;20474;-72
2022/03/08 04:51:07;;;;;;;14.20;7.32;;;;;;;-2.46;55.95;99257.78;4972393;28;20030;-72
2022/03/08 04:53:32;;;;;;;15.27;7.30;;;;;;;-2.38;56.78;99297.81;4959918;28;20026;-73
2022/03/08 04:55:57;;;;;;;11.70;6.88;;;;;;;-2.30;55.64;99278.72;4968533;28;20566;-73
2022/03/08 04:58:23;;;;;;;12.43;6.85;;;;;;;-2.06;55.11;99286.69;4971615;28;20038;-73
2022/03/08 05:00:49;;;;;;;13.32;6.80;;;;;;;-1.96;54.39;99257.72;4969256;28;20034;-71
2022/03/08 05:03:14;;;;;;;10.05;5.88;;;;;;;-1.81;54.41;99261.88;4975265;28;20030;-73
2022/03/08 05:05:40;;;;;;;12.45;6.82;;;;;;;-1.95;54.46;99241.69;4979028;28;20045;-73
2022/03/08 05:08:06;;;;;;;13.85;6.60;;;;;;;-1.93;54.27;99253.03;4981814;28;20031;-77
2022/03/08 05:10:32;;;;;;;13.85;6.82;;;;;;;-1.93;54.86;99276.03;4971194;29;20028;-76
2022/03/08 05:12:58;;;;;;;14.52;6.25;;;;;;;-2.00;54.64;99271.16;4982226;28;20030;-72
2022/03/08 05:15:24;;;;;;;11.00;5.97;;;;;;;-1.88;55.10;99279.22;4988653;28;20109;-70
2022/03/08 05:17:49;;;;;;;9.52;5.70;;;;;;;-1.88;54.83;99280.06;4988382;28;20031;-70
2022/03/08 05:20:14;;;;;;;13.23;7.38;;;;;;;-1.97;54.67;99264.81;4997879;28;20030;-74
2022/03/08 05:22:40;;;;;;;11.60;6.28;;;;;;;-2.14;55.03;99242.19;4987522;28;20493;-77
2022/03/08 05:25:05;;;;;;;10.90;6.00;;;;;;;-2.21;55.97;99257.69;4975073;28;20062;-76
2022/03/08 05:27:31;;;;;;;14.43;6.05;;;;;;;-2.22;56.32;99282.50;4966627;28;20038;-74
2022/03/08 05:29:56;;;;;;;11.10;6.10;;;;;;;-2.41;56.16;99250.34;4977067;28;20053;-74
2022/03/08 05:32:23;;;;;;;11.65;6.32;;;;;;;-2.38;55.81;99241.31;4996295;28;20338;-80
2022/03/08 05:34:48;;;;;;;12.30;6.30;;;;;;;-2.14;55.73;99244.00;4963109;28;20027;-78
2022/03/08 05:37:14;;;;;;;13.07;6.00;;;;;;;-2.18;54.86;99221.31;4978210;28;20031;-76
2022/03/08 05:39:39;;;;;;;14.35;6.65;;;;;;;-1.81;54.78;99272.47;4978589;28;20026;-74
2022/03/08 05:42:05;;;;;;;10.15;6.03;;;;;;;-2.06;54.67;99218.59;4978303;28;20082;-72
2022/03/08 05:44:30;;;;;;;13.70;6.57;;;;;;;-1.78;54.63;99272.28;4979702;28;20041;-72
2022/03/08 05:46:55;;;;;;;14.32;6.32;;;;;;;-1.83;54.13;99255.84;4976161;28;20031;-71
2022/03/08 05:49:22;;;;;;;12.48;6.72;;;;;;;-1.84;53.88;99236.41;4971037;28;20027;-71
2022/03/08 05:51:48;;;;;;;11.80;6.45;;;;;;;-1.77;54.04;99250.06;4977049;28;20109;-71
2022/03/08 05:54:13;;;;;;;11.70;5.65;;;;;;;-1.56;53.62;99271.50;4978237;28;20093;-71
2022/03/08 05:56:38;;;;;;;12.20;5.97;;;;;;;-1.70;53.60;99248.66;4970313;28;20529;-73
2022/03/08 05:59:04;;;;;;;13.50;6.22;;;;;;;-1.50;53.57;99286.13;4976182;28;20069;-71
2022/03/08 06:01:29;;;;;;;12.35;5.43;;;;;;;-1.62;53.95;99262.19;4958701;28;20045;-70
2022/03/08 06:03:55;;;;;;;10.27;5.82;;;;;;;-1.53;53.56;99275.75;4976322;28;20023;-74
2022/03/08 06:06:20;;;;;;;11.52;6.40;;;;;;;-1.56;53.28;99272.34;4952939;28;20074;-77
2022/03/08 06:08:46;;;;;;;12.98;5.90;;;;;;;-1.70;52.82;99240.72;4941241;29;20023;-75
2022/03/08 06:11:12;;;;;;;11.85;5.55;;;;;;;-1.45;52.52;99265.38;4953067;28;20082;-68
2022/03/08 06:13:37;;;;;;;17.67;6.35;;;;;;;-1.34;53.11;99282.22;4969127;28;20450;-71
2022/03/08 06:16:03;;;;;;;10.38;5.95;;;;;;;-0.71;51.63;99274.72;4974247;28;20418;-66
2022/03/08 06:18:28;;;;;;;12.95;6.28;;;;;;;0.39;48.67;99246.34;4976162;28;20030;-71
2022/03/08 06:20:53;;;;;;;11.23;6.22;;;;;;;1.77;45.44;99288.75;4976825;28;20031;-71
2022/03/08 06:23:19;;;;;;;11.80;6.07;;;;;;;2.25;44.85;99291.53;4971317;28;20049;-71
2022/03/08 06:25:44;;;;;;;12.60;6.65;;;;;;;2.84;43.24;99285.22;4955381;28;20027;-74
2022/03/08 06:28:09;;;;;;;12.50;6.25;;;;;;;3.35;41.67;99291.16;4972885;28;20027;-71
2022/03/08 06:30:35;;;;;;;13.35;6.47;;;;;;;3.21;41.35;99279.09;4974920;28;20038;-69
2022/03/08 06:33:00;;;;;;;10.43;5.72;;;;;;;3.92;40.38;99285.72;4975461;28;20018;-74
2022/03/08 06:35:26;;;;;;;12.32;6.50;;;;;;;3.80;39.79;99278.88;4968019;28;20154;-78
2022/03/08 06:37:51;;;;;;;11.18;6.18;;;;;;;4.41;39.30;99280.94;4959549;28;20030;-77
2022/03/08 06:40:17;;;;;;;11.52;6.65;;;;;;;5.19;37.46;99294.50;4955599;28;20800;-74
2022/03/08 06:42:42;;;;;;;12.13;6.68;;;;;;;5.20;37.07;99257.78;4940107;29;20031;-75
2022/03/08 06:45:08;;;;;;;13.00;6.85;;;;;;;5.55;37.17;99294.38;4966970;28;20022;-69
2022/03/08 06:47:33;;;;;;;9.70;5.55;;;;;;;5.73;36.22;99296.97;4968700;28;20071;-68
2022/03/08 06:49:59;;;;;;;12.63;6.97;;;;;;;5.53;35.95;99291.03;4986022;28;20042;-68
2022/03/08 06:52:25;;;;;;;16.40;5.78;;;;;;;5.66;35.75;99277.19;4987630;28;20061;-78
2022/03/08 06:54:51;;;;;;;12.75;6.32;;;;;;;5.30;36.50;99295.25;4992753;28;20038;-73
2022/03/08 06:57:18;;;;;;;12.07;6.32;;;;;;;4.91;37.29;99274.16;4969971;28;20038;-70
2022/03/08 06:59:43;;;;;;;10.32;5.68;;;;;;;4.65;37.66;99300.91;4984220;28;20023;-77
2022/03/08 07:02:09;;;;;;;12.45;6.75;;;;;;;5.51;36.61;99303.75;4985973;28;20041;-75
2022/03/08 07:04:34;;;;;;;10.65;5.93;;;;;;;5.13;36.81;99295.09;4992046;28;20039;-71
2022/03/08 07:07:00;;;;;;;9.70;5.93;;;;;;;5.93;35.94;99297.59;4992318;28;20065;-76
2022/03/08 07:09:25;;;;;;;9.98;6.35;;;;;;;6.37;34.97;99289.38;4969815;28;20027;-69
2022/03/08 07:11:52;;;;;;;12.57;6.32;;;;;;;7.87;33.18;99302.41;4973084;28;20082;-71
2022/03/08 07:14:17;;;;;;;11.18;6.13;;;;;;;7.06;33.26;99279.19;4974298;28;20027;-75
2022/03/08 07:16:43;;;;;;;12.00;6.60;;;;;;;7.96;33.02;99305.91;4976450;28;20027;-72
2022/03/08 07:19:09;;;;;;;10.50;6.10;;;;;;;9.15;31.28;99285.81;4971446;28;20101;-74
2022/03/08 07:21:34;;;;;;;12.90;6.22;;;;;;;10.04;29.84;99298.56;4965231;29;20024;-73
2022/03/08 07:23:59;;;;;;;8.50;5.72;;;;;;;10.34;29.14;99301.25;4969797;28;20446;-74
2022/03/08 07:26:24;;;;;;;10.98;6.35;;;;;;;10.80;28.52;99301.78;4974433;28;20110;-68
2022/03/08 07:28:50;;;;;;;9.80;6.30;;;;;;;11.20;28.24;99296.72;4975360;28;20049;-68
2022/03/08 07:31:15;;;;;;;9.73;6.47;;;;;;;11.61;27.28;99291.41;4969831;28;20043;-72
2022/03/08 07:33:41;;;;;;;11.80;6.80;;;;;;;11.44;27.34;99290.03;4969767;28;20467;-77
2022/03/08 07:36:06;;;;;;;14.65;6.50;;;;;;;12.19;26.88;99299.28;4970818;28;20405;-68
2022/03/08 07:38:31;;;;;;;10.95;6.45;;;;;;;11.65;27.23;99302.69;4968107;28;20023;-69
2022/03/08 07:40:57;;;;;;;12.77;6.88;;;;;;;13.68;25.26;99295.59;4973820;28;20089;-70
2022/03/08 07:43:22;;;;;;;9.25;6.10;;;;;;;12.65;25.99;99289.63;4947432;28;20039;-73
2022/03/08 07:45:47;;;;;;;10.77;6.65;;;;;;;14.16;24.55;99291.72;4963129;28;20036;-80
2022/03/08 07:48:13;;;;;;;11.38;6.45;;;;;;;14.03;24.94;99300.75;4963554;28;20030;-68
2022/03/08 07:50:38;;;;;;;9.45;6.20;;;;;;;14.32;24.75;99295.84;4964005;28;20050;-68
2022/03/08 07:53:05;;;;;;;12.55;6.30;;;;;;;15.21;23.25;99275.84;4954547;28;20030;-68
2022/03/08 07:55:31;;;;;;;15.75;6.13;;;;;;;14.74;24.69;99301.75;4974861;28;20371;-69
2022/03/08 07:57:58;;;;;;;10.25;6.82;;;;;;;15.77;23.14;99298.66;4978811;28;20098;-69
2022/03/08 08:00:24;;;;;;;9.20;6.55;;;;;;;15.99;22.56;99277.25;4973082;28;20088;-69
2022/03/08 08:02:51;;;;;;;12.70;7.13;;;;;;;13.68;24.91;99314.63;4951785;28;20030;-69
2022/03/08 08:05:17;;;;;;;8.63;6.50;;;;;;;12.84;26.02;99290.75;4962538;28;20688;-68
2022/03/08 08:07:43;;;;;;;11.02;6.38;;;;;;;13.44;25.78;99315.25;4962678;28;20023;-69
2022/03/08 08:10:09;;;;;;;10.35;6.50;;;;;;;14.15;24.61;99309.94;4958863;28;20026;-72
2022/03/08 08:12:35;;;;;;;8.85;6.03;;;;;;;14.05;24.37;99319.59;4968469;28;20023;-71
2022/03/08 08:15:00;;;;;;;9.63;6.70;;;;;;;14.17;24.71;99305.09;4958076;28;20039;-70
2022/03/08 08:17:25;;;;;;;9.50;6.22;;;;;;;13.63;25.32;99275.53;4966461;28;20033;-74
2022/03/08 08:19:51;;;;;;;9.25;6.57;;;;;;;15.78;23.14;99292.16;4972589;28;20027;-75
2022/03/08 08:22:17;;;;;;;10.05;6.60;;;;;;;15.59;23.42;99304.03;4967087;28;20371;-74
2022/03/08 08:24:43;;;;;;;8.50;5.97;;;;;;;14.87;23.74;99280.69;4951648;28;20038;-74
2022/03/08 08:27:08;;;;;;;8.77;6.32;;;;;;;14.88;24.03;99316.94;4965091;28;20042;-71
2022/03/08 08:29:33;;;;;;;8.40;5.90;;;;;;;15.73;23.15;99305.63;4971168;28;20367;-72
2022/03/08 08:31:59;;;;;;;10.07;6.57;;;;;;;14.93;23.79;99283.59;4975889;28;20126;-79
2022/03/08 08:34:24;;;;;;;9.02;6.32;;;;;;;16.89;22.12;99300.28;4965447;28;20069;-81
2022/03/08 08:36:49;;;;;;;9.15;6.40;;;;;;;16.21;22.79;99278.44;4966712;28;20026;-80
2022/03/08 08:39:15;;;;;;;9.95;6.25;;;;;;;15.92;22.81;99274.56;4976646;28;20505;-73
2022/03/08 08:41:42;;;;;;;9.95;6.43;;;;;;;16.17;23.09;99276.41;4957546;28;20022;-76
2022/03/08 08:44:07;;;;;;;8.13;6.10;;;;;;;15.83;23.11;99277.84;4965399;28;20038;-73
2022/03/08 08:46:33;;;;;;;8.25;5.68;;;;;;;16.36;22.54;99277.22;4960441;28;20026;-75
2022/03/08 08:48:58;;;;;;;8.13;5.70;;;;;;;15.34;23.84;99293.97;4977093;28;20034;-75
2022/03/08 08:51:25;;;;;;;9.45;5.82;;;;;;;15.01;24.11;99275.16;4956048;28;20089;-70
2022/03/08 08:53:50;;;;;;;9.07;6.28;;;;;;;16.09;23.74;99293.09;4976010;28;20030;-70
2022/03/08 08:56:15;;;;;;;7.40;5.25;;;;;;;15.55;23.57;99273.66;4973601;28;20390;-70
2022/03/08 08:58:41;;;;;;;9.88;5.57;;;;;;;16.90;22.53;99283.66;4971617;28;20501;-75
2022/03/08 09:01:07;;;;;;;8.80;5.63;;;;;;;16.52;22.45;99262.94;4958925;28;20011;-78
2022/03/08 09:03:32;;;;;;;8.85;5.40;;;;;;;13.99;24.66;99269.56;4961129;28;20053;-78
2022/03/08 09:05:58;;;;;;;8.07;4.53;;;;;;;14.76;23.42;99245.16;4971106;28;20062;-76
2022/03/08 09:08:24;;;;;;;8.35;4.68;;;;;;;13.52;24.81;99288.72;4956144;28;20023;-78
2022/03/08 09:10:54;;;;;;;8.38;5.13;;;;;;;11.72;26.90;99262.09;4957230;28;20043;-76
2022/03/08 09:13:20;;;;;;;6.90;4.80;;;;;;;11.41;27.71;99290.44;4960388;28;20113;-77
2022/03/08 09:15:46;;;;;;;7.13;4.45;;;;;;;11.27;27.84;99250.75;4959621;28;20441;-74
2022/03/08 09:18:11;;;;;;;8.10;4.53;;;;;;;11.38;27.80;99261.88;4976661;28;20019;-78
2022/03/08 09:20:38;;;;;;;6.82;4.40;;;;;;;11.73;27.14;99264.59;4966693;28;20022;-73
2022/03/08 09:23:04;;;;;;;6.53;4.35;;;;;;;10.72;28.43;99274.84;4979123;28;20405;-76
2022/03/08 09:25:30;;;;;;;9.25;4.78;;;;;;;10.80;28.77;99279.28;5061800;23;20496;-78
2022/03/08 09:27:56;;;;;;;10.32;4.82;;;;;;;12.56;27.02;99285.44;5039705;28;20021;-68
2022/03/08 09:30:21;;;;;;;5.40;4.15;;;;;;;14.15;25.03;99271.00;5047014;28;20012;-68
2022/03/08 09:32:47;;;;;;;6.00;3.95;;;;;;;13.74;24.88;99278.41;5044713;28;20060;-66
2022/03/08 09:35:12;;;;;;;5.88;3.97;;;;;;;13.76;24.80;99260.00;5041305;28;20040;-66
2022/03/08 09:37:37;;;;;;;8.25;4.43;;;;;;;13.47;24.79;99274.91;5048098;28;20064;-68
2022/03/08 09:40:04;;;;;;;7.68;4.10;;;;;;;13.44;25.17;99279.91;5033148;28;20052;-69
2022/03/08 09:42:31;;;;;;;5.50;3.55;;;;;;;12.74;25.44;99266.69;5030950;28;20433;-68
2022/03/08 09:44:56;;;;;;;5.72;3.70;;;;;;;12.50;25.56;99247.22;5029520;28;20108;-68
2022/03/08 09:47:22;;;;;;;5.28;3.40;;;;;;;12.20;25.98;99265.69;5027920;28;20112;-72
2022/03/08 09:49:49;;;;;;;6.00;4.00;;;;;;;12.01;25.93;99251.00;5016415;28;20036;-70
2022/03/08 09:52:15;;;;;;;5.03;3.60;;;;;;;11.40;26.02;99240.84;5016949;28;20025;-65
2022/03/08 09:54:44;;;;;;;8.98;3.63;;;;;;;11.16;26.75;99260.22;5013340;28;20074;-67
2022/03/08 09:57:10;;;;;;;7.38;3.38;;;;;;;12.19;25.66;99257.78;5031778;28;20029;-67
2022/03/08 09:59:35;;;;;;;6.95;3.40;;;;;;;12.29;25.64;99260.94;5024349;28;20026;-73
2022/03/08 10:02:01;;;;;;;6.93;3.40;;;;;;;12.46;25.33;99242.41;5010481;28;20040;-75
2022/03/08 10:04:26;;;;;;;8.35;3.20;;;;;;;12.14;25.67;99231.25;5015118;28;20040;-74
2022/03/08 10:06:52;;;;;;;4.90;3.13;;;;;;;12.84;24.57;99231.00;5045068;28;20472;-75
2022/03/08 10:09:19;;;;;;;5.68;3.30;;;;;;;12.62;25.07;99244.72;5034066;28;20044;-73
2022/03/08 10:11:50;;;;;;;5.50;3.33;;;;;;;13.22;24.52;99209.47;5034267;28;20017;-75
2022/03/08 10:14:28;;;;;;;5.30;3.40;;;;;;;14.92;22.61;99236.44;5028167;28;20399;-75
2022/03/08 10:16:54;;;;;;;5.30;3.17;;;;;;;15.15;22.23;99213.22;5012180;28;20116;-71
2022/03/08 10:19:19;;;;;;;4.88;3.35;;;;;;;14.24;22.63;99205.19;5021871;28;20108;-74
2022/03/08 10:21:54;;;;;;;6.07;3.42;;;;;;;14.87;22.60;99233.56;5034571;28;20037;-70
2022/03/08 10:24:23;;;;;;;5.78;3.22;;;;;;;14.90;22.55;99230.38;5033246;28;20029;-69
2022/03/08 10:26:51;;;;;;;5.37;3.37;;;;;;;14.60;22.93;99231.00;5030986;28;20080;-70
2022/03/08 10:29:26;;;;;;;5.00;3.35;;;;;;;13.85;23.51;99232.59;5030684;28;20090;-73
2022/03/08 10:32:19;;;;;;;4.53;3.20;;;;;;;15.08;22.28;99214.09;5035047;28;20022;-70
2022/03/08 10:34:51;;;;;;;7.68;3.65;;;;;;;13.51;23.32;99248.13;5033348;28;20096;-69
2022/03/08 10:37:19;;;;;;;5.20;2.92;;;;;;;13.60;23.05;99225.13;5016599;28;20447;-68
2022/03/08 10:39:54;;;;;;;4.65;3.35;;;;;;;14.08;22.95;99200.28;5016207;28;20075;-68
2022/03/08 10:42:24;;;;;;;4.28;2.80;;;;;;;15.46;22.38;99212.31;5041808;28;20028;-70
2022/03/08 10:44:52;;;;;;;4.63;2.88;;;;;;;16.11;20.87;99209.91;5043109;28;20030;-70
2022/03/08 10:47:17;;;;;;;5.35;3.03;;;;;;;16.40;20.56;99207.41;5030573;28;20025;-69
2022/03/08 10:49:52;;;;;;;5.82;3.17;;;;;;;15.03;21.46;99197.56;5033043;28;20036;-71
2022/03/08 10:52:24;;;;;;;4.38;2.97;;;;;;;15.69;21.06;99200.75;5033687;28;20052;-71
2022/03/08 10:54:49;;;;;;;6.63;2.95;;;;;;;15.33;21.18;99191.47;5031598;28;20024;-69
2022/03/08 10:57:15;;;;;;;5.47;3.10;;;;;;;15.33;21.07;99205.09;5032806;28;20052;-72
2022/03/08 10:59:53;;;;;;;6.45;3.10;;;;;;;14.35;21.94;99178.34;5032840;28;20388;-71
2022/03/08 11:02:20;;;;;;;6.60;3.42;;;;;;;15.05;21.63;99195.47;5024062;28;20078;-70
2022/03/08 11:04:45;;;;;;;6.45;3.30;;;;;;;15.39;21.06;99185.09;5028861;28;20022;-72
2022/03/08 11:07:12;;;;;;;8.82;3.03;;;;;;;16.30;20.75;99175.22;5029405;28;20065;-69
2022/03/08 11:09:37;;;;;;;7.28;2.78;;;;;;;14.79;20.86;99195.69;5023996;28;22896;-68
2022/03/08 11:12:03;;;;;;;5.80;2.65;;;;;;;13.73;21.84;99176.16;5028926;28;20060;-72
2022/03/08 11:14:29;;;;;;;4.80;3.22;;;;;;;14.27;21.82;99176.72;5026411;28;20029;-66
2022/03/08 11:16:55;;;;;;;5.32;3.30;;;;;;;14.74;21.49;99195.50;5027186;28;20538;-68
2022/03/08 11:19:26;;;;;;;5.45;3.13;;;;;;;15.21;21.51;99177.72;5019122;28;20053;-68
2022/03/08 11:21:51;;;;;;;7.15;3.17;;;;;;;15.27;21.05;99175.97;5029135;28;20060;-68
2022/03/08 11:24:18;;;;;;;4.88;2.92;;;;;;;14.64;21.67;99168.75;5025741;28;20061;-68
2022/03/08 11:26:44;;;;;;;3.67;2.72;;;;;;;14.80;21.23;99181.00;5024588;28;20312;-68